Latest Coastal Weather Observations for Lombadina

IDW60701

Issued at 7:52 pm WST Tuesday 26 May 2015 (issued every 10 minutes, with the page automatically refreshed every 10 minutes)

About coastal observations | Map of coastal stations | Coastal observations for WA | Marine services | Other Formats
Station Details ID: 503016 Name: LOMBADINA AIRSTRIP Lat: -16.52 Lon: 122.92 Height: 42.0 m
Data from the previous 72 hours. | See also: Recent months for locations in Western Australia
Date/Time
WST
Temp

°C
Wind Pressure Rain
since 9am
mm
Weather Cloud Vis
km
Sea
Height
m
Swell
Dir
 
Speed
knots
Gust
knots
hPa Trend Height
m
Period
s
Dir
26/07:30pm 21.7 CALM 0 1 1016.1 - 0.0 - - - - - - -
26/07:00pm 21.7 CALM 0 2 1015.9 - 0.0 - - - - - - -
26/06:30pm 22.2 CALM 0 1 1015.5 - 0.0 - - - - - - -
26/06:00pm 23.9 CALM 0 2 1015.2 - 0.0 - - - - - - -
26/05:30pm 24.9 CALM 0 2 1014.7 - 0.0 - - - - - - -
26/05:00pm 27.9 WNW 2 4 1014.4 - 0.0 - - - - - - -
26/04:30pm 28.8 WNW 2 5 1014.2 - 0.0 - - - - - - -
26/04:00pm 28.7 NW 4 6 1014.1 - 0.0 - - - - - - -
26/03:30pm 29.1 WNW 4 7 1013.9 - 0.0 - - - - - - -
26/03:00pm 29.8 NW 5 8 1014.0 - 0.0 - - - - - - -
26/02:30pm 28.8 WNW 5 8 1013.9 - 0.0 - - - - - - -
26/02:00pm 29.8 NW 4 7 1014.0 - 0.0 - Partly cloudy - - - - -
26/01:30pm 29.5 NW 6 10 1014.0 - 0.0 - - - - - - -
26/01:00pm 30.9 E 2 5 1014.4 - 0.0 - - - - - - -
26/12:30pm 30.5 ESE 4 8 1014.9 - 0.0 - - - - - - -
26/12:00pm 30.0 E 5 10 1015.2 - 0.0 - - - - - - -
26/11:30am 29.3 ESE 5 8 1015.7 - 0.0 - - - - - - -
26/11:00am 29.1 E 5 10 1016.0 - 0.0 - - - - - - -
26/10:30am 29.2 ENE 5 9 1016.3 - 0.0 - - - - - - -
26/10:00am 28.8 E 3 6 1016.7 - 0.0 - - - - - - -
26/09:30am 26.4 SSE 2 5 1017.1 - 0.0 - - - - - - -
26/09:00am 25.7 SE 3 4 1017.1 - 0.0 - - - - - - -
26/08:30am 25.8 SE 3 5 1017.2 - 0.0 - - - - - - -
26/08:00am 25.6 SE 3 5 1017.1 - 0.0 - - - - - - -
26/07:30am 23.7 SE 3 7 1016.9 - 0.0 - - - - - - -
26/07:00am 22.0 SSE 3 5 1016.8 - 0.0 - - - - - - -
26/06:30am 21.5 SE 3 5 1016.4 - 0.0 - - - - - - -
26/06:00am 21.3 ESE 3 6 1016.1 - 0.0 - - - - - - -
26/05:30am 20.6 SE 3 5 1016.0 - 0.0 - - - - - - -
26/05:00am 21.8 SE 3 6 1015.8 - 0.0 - - - - - - -
26/04:30am 22.0 SSE 3 5 1016.0 - 0.0 - - - - - - -
26/04:00am 20.9 SSE 2 4 1015.7 - 0.0 - - - - - - -
26/03:30am 21.5 SSE 3 4 1015.5 - 0.0 - - - - - - -
26/03:00am 22.0 SSE 3 5 1015.3 - 0.0 - - - - - - -
26/02:30am 21.4 SE 4 7 1015.3 - 0.0 - - - - - - -
26/02:00am 19.0 E 1 2 1015.0 - 0.0 - - - - - - -
26/01:30am 18.4 ESE 1 3 1015.4 - 0.0 - - - - - - -
26/01:00am 18.7 E 1 3 1015.9 - 0.0 - - - - - - -
26/12:30am 18.4 CALM 0 0 1015.9 - 0.0 - - - - - - -
26/12:00am 19.2 CALM 0 0 1016.1 - 0.0 - - - - - - -
 
Date/Time
WST
Temp

°C
Wind Pressure Rain
since 9am
mm
Weather Cloud Vis
km
Sea
Height
m
Swell
Dir
 
Speed
knots
Gust
knots
hPa Trend Height
m
Period
s
Dir
25/11:30pm 20.1 N 2 3 1016.1 - 0.0 - - - - - - -
25/11:00pm 20.4 NE 2 3 1016.2 - 0.0 - - - - - - -
25/10:30pm 20.4 ENE 1 2 1016.8 - 0.0 - - - - - - -
25/10:00pm 21.5 NE 2 3 1016.7 - 0.0 - - - - - - -
25/09:30pm 22.0 NNE 1 3 1016.8 - 0.0 - - - - - - -
25/09:00pm 21.7 NNE 1 3 1016.7 - 0.0 - - - - - - -
25/08:30pm 22.2 NE 2 3 1016.5 - 0.0 - - - - - - -
25/08:00pm 23.1 NE 2 4 1016.4 - 0.0 - - - - - - -
25/07:30pm 22.2 NE 2 3 1016.2 - 0.0 - - - - - - -
25/07:00pm 21.3 CALM 0 0 1015.8 - 0.0 - - - - - - -
25/06:30pm 22.2 CALM 0 0 1015.3 - 0.0 - - - - - - -
25/06:00pm 23.5 CALM 0 0 1014.8 - 0.0 - - - - - - -
25/05:30pm 26.4 CALM 0 2 1014.7 - 0.0 - - - - - - -
25/05:00pm 27.6 NE 3 5 1014.5 - 0.0 - - - - - - -
25/04:30pm 28.3 NE 3 6 1014.5 - 0.0 - - - - - - -
25/04:00pm 28.6 ENE 7 10 1014.2 - 0.0 - - - - - - -
25/03:30pm 29.7 NE 6 10 1013.8 - 0.0 - - - - - - -
25/03:00pm 29.8 ENE 8 13 1013.8 - 0.0 - - - - - - -
25/02:30pm 29.8 ENE 8 12 1013.8 - 0.0 - - - - - - -
25/02:00pm 29.3 ENE 7 13 1014.0 - 0.0 - - - - - - -
25/01:30pm 30.2 ENE 9 14 1014.1 - 0.0 - - - - - - -
25/01:00pm 29.9 ENE 9 16 1014.2 - 0.0 - - - - - - -
25/12:30pm 30.2 ENE 9 18 1014.4 - 0.0 - - - - - - -
25/12:00pm 30.4 ENE 10 16 1014.9 - 0.0 - - - - - - -
25/11:30am 30.6 E 9 15 1015.3 - 0.0 - - - - - - -
25/11:00am 29.8 ENE 9 15 1015.6 - 0.0 - - - - - - -
25/10:30am 30.0 ENE 9 16 1015.8 - 0.0 - - - - - - -
25/10:00am 29.3 E 9 14 1016.0 - 0.0 - - - - - - -
25/09:30am 28.7 ENE 8 14 1016.2 - 0.0 - - - - - - -
25/09:00am 28.4 ENE 10 15 1016.4 - 0.0 - - - - - - -
25/08:30am 27.9 NE 7 12 1016.1 - 0.0 - - - - - - -
25/08:00am 27.4 ENE 5 9 1016.2 - 0.0 - - - - - - -
25/07:30am 26.4 NE 2 5 1016.5 - 0.0 - - - - - - -
25/07:00am 25.0 NE 2 4 1016.2 - 0.0 - Partly cloudy - - - - -
25/06:30am 24.2 NE 2 4 1015.9 - 0.0 - Partly cloudy - - - - -
25/06:00am 23.8 ENE 3 5 1015.3 - 0.0 - - - - - - -
25/05:30am 22.5 ENE 2 3 1015.0 - 0.0 - - - - - - -
25/05:00am 22.2 NE 2 4 1014.5 - 0.0 - - - - - - -
25/04:30am 22.3 NE 2 3 1014.6 - 0.0 - - - - - - -
25/04:00am 21.8 ESE 2 5 1014.2 - 0.0 - - - - - - -
25/03:30am 22.2 E 3 4 1014.0 - 0.0 - - - - - - -
25/03:00am 23.4 ENE 3 5 1013.8 - 0.0 - - - - - - -
25/02:30am 22.0 ENE 3 5 1013.9 - 0.0 - - - - - - -
25/02:00am 21.9 ENE 3 4 1014.2 - 0.0 - - - - - - -
25/01:30am 20.1 CALM 0 0 1014.4 - 0.0 - - - - - - -
25/01:00am 20.9 SSE 1 3 1014.5 - 0.0 - - - - - - -
25/12:30am 23.7 NNE 1 3 1014.3 - 0.0 - - - - - - -
25/12:00am 24.1 NNE 3 4 1014.4 - 0.0 - - - - - - -
 
Date/Time
WST
Temp

°C
Wind Pressure Rain
since 9am
mm
Weather Cloud Vis
km
Sea
Height
m
Swell
Dir
 
Speed
knots
Gust
knots
hPa Trend Height
m
Period
s
Dir
24/11:30pm 24.4 NNE 3 4 1014.8 - 0.0 - - - - - - -
24/11:00pm 24.3 N 3 4 1014.8 - 0.0 - - - - - - -
24/10:30pm 24.6 NNE 3 5 1014.8 - 0.0 - - - - - - -
24/10:00pm 24.5 NNE 3 5 1015.3 - 0.0 - - - - - - -
24/09:30pm 24.6 NNE 3 4 1015.3 - 0.0 - - - - - - -
24/09:00pm 24.6 NNE 1 4 1015.3 - 0.0 - - - - - - -
24/08:30pm 24.9 NNE 3 5 1015.5 - 0.0 - - - - - - -
24/08:00pm 24.5 NNE 3 4 1015.4 - 0.0 - - - - - - -
24/07:30pm 25.3 NNE 2 4 1015.2 - 0.0 - - - - - - -
24/07:00pm 25.4 NNE 2 4 1014.9 - 0.0 - - - - - - -
24/06:30pm 25.5 NNE 2 3 1014.6 - 0.0 - - - - - - -
24/06:00pm 25.9 NNE 1 2 1014.4 - 0.0 - - - - - - -
24/05:30pm 27.0 NNE 2 4 1014.1 - 0.0 - - - - - - -
24/05:00pm 28.1 NE 3 6 1013.9 - 0.0 - - - - - - -
24/04:30pm 28.5 ENE 4 6 1013.6 - 0.0 - - - - - - -
24/04:00pm 28.6 ENE 5 8 1013.1 - 0.0 - - - - - - -
24/03:30pm 29.2 ENE 5 11 1012.9 - 0.0 - - - - - - -
24/03:00pm 29.5 ENE 6 11 1012.9 - 0.0 - - - - - - -
24/02:30pm 29.0 E 6 13 1012.8 - 0.0 - Partly cloudy - - - - -
24/02:00pm 29.4 E 6 9 1012.8 - 0.0 - - - - - - -
24/01:30pm 29.6 ENE 6 11 1013.0 - 0.0 - - - - - - -
24/01:00pm 29.1 ESE 5 11 1013.3 - 0.0 - - - - - - -
24/12:30pm 29.4 E 7 11 1013.6 - 0.0 - - - - - - -
24/12:00pm 29.2 ENE 6 11 1014.0 - 0.0 - - - - - - -
24/11:30am 29.7 ENE 5 9 1014.4 - 0.0 - - - - - - -
24/11:00am 28.5 E 5 9 1014.8 - 0.0 - Partly cloudy - - - - -
24/10:30am 28.6 E 5 10 1015.2 - 0.0 - Partly cloudy - - - - -
24/10:00am 28.0 ESE 4 9 1015.3 - 0.0 - Partly cloudy - - - - -
24/09:30am 28.4 ESE 5 9 1015.6 - 0.0 - Partly cloudy - - - - -
24/09:00am 28.0 SE 3 6 1015.6 - 0.0 - Mostly cloudy - - - - -
24/08:30am 27.0 SE 3 6 1015.6 - 0.0 - - - - - - -
24/08:00am 25.3 ESE 1 4 1015.3 - 0.0 - Partly cloudy - - - - -
24/07:30am 23.9 SSE 1 4 1015.2 - 0.0 - - - - - - -
24/07:00am 22.6 SSE 1 3 1015.1 - 0.0 - - - - - - -
24/06:30am 22.3 SE 2 4 1014.7 - 0.0 - - - - - - -
24/06:00am 22.3 SE 2 4 1014.5 - 0.0 - - - - - - -
24/05:30am 22.7 SE 3 5 1014.2 - 0.0 - - - - - - -
24/05:19am 22.8 SE 3 5 1014.2 - 0.0 - Partly cloudy - - - - -
24/05:00am 22.8 SSE 3 5 1014.1 - 0.0 - Partly cloudy - - - - -
24/04:30am 23.0 SSE 3 5 1014.0 - 0.0 - Partly cloudy - - - - -
24/04:11am 23.0 SE 3 6 1014.1 - 0.0 - Partly cloudy - - - - -
24/04:00am 22.7 ESE 3 6 1013.9 - 0.0 - Partly cloudy - - - - -
24/03:30am 22.2 ESE 1 3 1013.7 - 0.0 - - - - - - -
24/03:00am 21.2 CALM 0 2 1013.7 - 0.0 - Mostly clear - - - - -
24/02:30am 20.8 S 1 2 1013.8 - 0.0 - - - - - - -
24/02:00am 22.2 CALM 0 0 1013.8 - 0.0 - - - - - - -
24/01:30am 21.7 CALM 0 1 1013.9 - 0.0 - - - - - - -
24/01:00am 21.8 CALM 0 0 1014.2 - 0.0 - - - - - - -
24/12:30am 22.2 CALM 0 0 1014.3 - 0.0 - - - - - - -
24/12:00am 21.4 CALM 0 2 1014.4 - 0.0 - - - - - - -
 
Date/Time
WST
Temp

°C
Wind Pressure Rain
since 9am
mm
Weather Cloud Vis
km
Sea
Height
m
Swell
Dir
 
Speed
knots
Gust
knots
hPa Trend Height
m
Period
s
Dir
23/11:30pm 22.6 CALM 0 0 1014.5 - 0.0 - - - - - - -
23/11:00pm 21.8 CALM 0 1 1014.6 - 0.0 - - - - - - -
23/10:30pm 22.1 CALM 0 1 1014.6 - 0.0 - - - - - - -
23/10:00pm 22.0 CALM 0 2 1014.7 - 0.0 - - - - - - -
23/09:30pm 21.8 SW 1 3 1014.8 - 0.0 - - - - - - -
23/09:00pm 21.8 CALM 0 1 1014.5 - 0.0 - - - - - - -
23/08:30pm 22.0 CALM 0 1 1014.7 - 0.0 - - - - - - -
23/08:00pm 23.1 CALM 0 0 1014.6 - 0.0 - - - - - - -

Other Formats:

Comma delimited format used in spreadsheet applications
http://www.bom.gov.au/fwo/IDW60701/IDW60701.99206.axf

JavaScript Object Notation format (JSON) in row-major order
http://www.bom.gov.au/fwo/IDW60701/IDW60701.99206.json